Terminal Aerodrome Forecast
Issued by NWS

Home | Current Version | Previous Version | Text Only | Print | Product List | Glossary On
Versions: 1 2 3 4 5 6 7 8 9 10 11 12 13 14 15 16 17 18 19 20
000
FTUS43 KILX 211157 AAA
TAFBMI
TAF AMD
KBMI 211157Z 2112/2212 09007KT P6SM VCTS SCT050CB BKN250
      TEMPO 2112/2114 4SM TSRA BR BKN040CB
     FM211500 20006KT P6SM SCT050
     FM211800 19006KT P6SM VCTS SCT040CB BKN200
     FM220000 17007KT P6SM SCT200=

USA.gov is the U.S. government's official web portal to all federal, state and local government web resources and services.